Adrian, Missouri
Current Conditions -  °F | °C
As of 5:35 AM on Friday 24 Oct 2014 (Local Time) from KGLY Reporting Station
Moderate Fog Moderate Fog  
Wind Chill: 12°   Ceiling: 300
Heat Index: 12°   Visibility: 0mi
Dew Point: 12°   Wind: 0mph
Humidity: 100%   Direction: NA
Pressure: 30.1"   Gusts: NA
Location:  38.4°N, 94.35°W
Report Text: KGLY 241035Z AUTO 00000KT M1/4SM FG OVC003 12/12 A3010 RMK AO2 VSBY M1/4V5
Loading
Personal Weather Stations






























Interactive Weather Map
Tropical Storm Tracking
New forecast layout! Learn more

10-Day Weather Forecast

Advertisements
Track Severe Weather on mobile